KNUC

San Clemente Island Nalf Airport

San Clemente Island, California, USA
METAR KNUC 171756Z 05006KT 10SM CLR 21/17 A3010 RMK AO2 SLP189 T02110167 10217 20133 51008 $
Observed Flight Rules
Oct-17 @ 17:56 UTC (25 minutes ago) Visual Flight Rules
Wind Visibility Clouds
50° at 6 knots 10 miles
  • Clear skies
Temperatures Readings
Current 21°C / 70°F
Dewpoint 17°C / 63°F
Humidity 78%
Altimeter 30.1" Hg
Pressure 1018.9 hPa
Elevation 55
METAR KNUC 171756Z 05006KT 10SM CLR 21/17 A3010 RMK AO2 SLP189 T02110167 10217 20133 51008 $
Observed Flight Rules
Oct-17 @ 17:56 UTC
(25 minutes ago)
VFR
Wind Visibility
50° at 6 knots 10 miles
Clouds
  • Clear skies
Temperature Dewpoint
21°C / 70°F 17°C / 63°F
Humidity Altimeter Pressure
78% 30.1" Hg 1018.9 hPa